createdAt,value
2023-04-02T00:00:27.807Z,64.61
2023-04-02T00:01:27.809Z,65.90
2023-04-02T00:02:27.929Z,64.61
2023-04-02T00:03:27.864Z,69.77
2023-04-02T00:04:27.774Z,66.87
2023-04-02T00:05:27.754Z,67.51
2023-04-02T00:06:27.748Z,69.61
2023-04-02T00:07:27.729Z,65.10
2023-04-02T00:08:27.727Z,65.10
2023-04-02T00:09:27.750Z,67.51
2023-04-02T00:10:27.714Z,67.68
2023-04-02T00:11:27.698Z,64.29
2023-04-02T00:12:27.700Z,69.77
2023-04-02T00:13:27.673Z,70.09
2023-04-02T00:14:27.680Z,62.68
2023-04-02T00:15:27.653Z,63.65
2023-04-02T00:16:27.657Z,67.35
2023-04-02T00:17:27.639Z,73.64
2023-04-02T00:18:27.680Z,69.93
2023-04-02T00:19:27.632Z,66.23
2023-04-02T00:20:27.610Z,65.74
2023-04-02T00:21:27.596Z,67.03
2023-04-02T00:22:27.584Z,64.29
2023-04-02T00:23:27.570Z,66.39
2023-04-02T00:24:27.580Z,68.00
2023-04-02T00:25:27.557Z,69.45
2023-04-02T00:26:27.540Z,68.00
2023-04-02T00:27:27.534Z,67.51
2023-04-02T00:28:27.535Z,65.58
2023-04-02T00:29:27.551Z,67.68
2023-04-02T00:30:27.531Z,68.64
2023-04-02T00:31:27.529Z,66.39
2023-04-02T00:32:27.553Z,66.87
2023-04-02T00:33:27.489Z,68.96
2023-04-02T00:34:27.485Z,67.84
2023-04-02T00:35:27.478Z,67.51
2023-04-02T00:36:27.441Z,67.03
2023-04-02T00:37:27.445Z,67.51
2023-04-02T00:38:27.418Z,64.29
2023-04-02T00:39:27.430Z,66.71
2023-04-02T00:40:27.422Z,66.23
2023-04-02T00:41:27.403Z,63.65
2023-04-02T00:42:27.378Z,68.48
2023-04-02T00:43:27.363Z,65.10
2023-04-02T00:44:27.384Z,68.80
2023-04-02T00:45:27.340Z,67.51
2023-04-02T00:46:27.496Z,69.29
2023-04-02T00:47:27.365Z,68.48
2023-04-02T00:48:27.309Z,65.42
2023-04-02T00:49:27.320Z,65.42
2023-04-02T00:50:27.306Z,65.90
2023-04-02T00:51:27.278Z,66.71
2023-04-02T00:52:27.274Z,63.16
2023-04-02T00:53:27.250Z,66.71
2023-04-02T00:54:27.258Z,66.55
2023-04-02T00:55:27.244Z,66.87
2023-04-02T00:56:27.219Z,66.23
2023-04-02T00:57:27.237Z,66.39
2023-04-02T00:58:27.202Z,69.93
2023-04-02T00:59:27.214Z,68.48
2023-04-02T01:00:27.168Z,64.61
2023-04-02T01:01:27.236Z,68.80
2023-04-02T01:02:27.219Z,68.64
2023-04-02T01:03:27.208Z,65.90
2023-04-02T01:04:27.140Z,70.09
2023-04-02T01:05:27.124Z,65.90
2023-04-02T01:06:27.105Z,66.87
2023-04-02T01:07:27.085Z,62.84
2023-04-02T01:08:27.082Z,66.55
2023-04-02T01:09:27.102Z,66.71
2023-04-02T01:10:27.071Z,66.06
2023-04-02T01:11:27.076Z,67.35
2023-04-02T01:12:27.037Z,68.32
2023-04-02T01:13:27.021Z,64.13
2023-04-02T01:14:27.026Z,67.03
2023-04-02T01:15:26.990Z,64.94
2023-04-02T01:16:27.091Z,66.39
2023-04-02T01:17:27.021Z,66.06
2023-04-02T01:18:26.976Z,65.58
2023-04-02T01:19:26.987Z,66.23
2023-04-02T01:20:26.950Z,64.94
2023-04-02T01:21:26.938Z,64.94
2023-04-02T01:22:26.916Z,68.16
2023-04-02T01:23:26.904Z,65.90
2023-04-02T01:24:26.961Z,69.77
2023-04-02T01:25:26.890Z,67.68
2023-04-02T01:26:26.895Z,66.55
2023-04-02T01:27:26.869Z,65.26
2023-04-02T01:28:26.856Z,68.16
2023-04-02T01:29:26.854Z,70.42
2023-04-02T01:30:26.836Z,64.29
2023-04-02T01:31:26.893Z,68.96
2023-04-02T01:32:26.817Z,67.84
2023-04-02T01:33:26.806Z,66.06
2023-04-02T01:34:26.920Z,64.94
2023-04-02T01:35:26.769Z,67.35
2023-04-02T01:36:26.778Z,65.26
2023-04-02T01:37:26.742Z,63.33
2023-04-02T01:38:27.752Z,66.87
2023-04-02T01:39:26.756Z,66.71
2023-04-02T01:40:26.717Z,66.06
2023-04-02T01:41:26.706Z,62.84
2023-04-02T01:42:26.709Z,69.45
2023-04-02T01:43:26.688Z,67.35
2023-04-02T01:44:26.675Z,64.78
2023-04-02T01:45:26.681Z,61.07
2023-04-02T01:46:26.740Z,66.06
2023-04-02T01:47:26.659Z,65.26
2023-04-02T01:48:26.634Z,67.35
2023-04-02T01:49:26.606Z,72.67
2023-04-02T01:50:26.628Z,72.03
2023-04-02T01:51:26.585Z,72.03
2023-04-02T01:52:26.570Z,69.13
2023-04-02T01:53:26.558Z,68.32
2023-04-02T01:54:26.553Z,67.51
2023-04-02T01:55:26.549Z,61.71
2023-04-02T01:56:26.518Z,64.61
2023-04-02T01:57:26.535Z,67.68
2023-04-02T01:58:26.532Z,68.64
2023-04-02T01:59:26.534Z,67.51
2023-04-02T02:00:26.565Z,64.45
2023-04-02T02:01:26.498Z,65.74
2023-04-02T02:02:26.546Z,69.45
2023-04-02T02:03:26.472Z,68.48
2023-04-02T02:04:26.431Z,63.33
2023-04-02T02:05:26.448Z,64.29
2023-04-02T02:06:26.419Z,66.55
2023-04-02T02:07:26.416Z,69.45
2023-04-02T02:08:26.391Z,66.23
2023-04-02T02:09:26.380Z,63.49
2023-04-02T02:10:26.400Z,66.23
2023-04-02T02:11:26.362Z,66.23
2023-04-02T02:12:26.348Z,65.90
2023-04-02T02:13:26.334Z,64.94
2023-04-02T02:14:26.334Z,67.19
2023-04-02T02:15:26.322Z,66.39
2023-04-02T02:16:26.375Z,66.87
2023-04-02T02:17:26.322Z,65.10
2023-04-02T02:18:26.317Z,65.74
2023-04-02T02:19:26.276Z,66.55
2023-04-02T02:20:26.320Z,66.87
2023-04-02T02:21:26.262Z,66.06
2023-04-02T02:22:26.244Z,74.44
2023-04-02T02:23:26.250Z,67.35
2023-04-02T02:24:26.218Z,64.61
2023-04-02T02:25:26.200Z,66.55
2023-04-02T02:26:26.197Z,64.13
2023-04-02T02:27:26.184Z,66.23
2023-04-02T02:28:26.188Z,65.90
2023-04-02T02:29:26.161Z,63.00
2023-04-02T02:30:26.147Z,66.06
2023-04-02T02:31:26.167Z,66.39
2023-04-02T02:32:26.170Z,66.06
2023-04-02T02:33:26.170Z,66.39
2023-04-02T02:34:26.106Z,65.58
2023-04-02T02:35:26.117Z,64.61
2023-04-02T02:36:26.158Z,69.13
2023-04-02T02:37:26.090Z,74.44
2023-04-02T02:38:26.079Z,63.81
2023-04-02T02:39:26.049Z,64.13
2023-04-02T02:40:26.070Z,68.16
2023-04-02T02:41:26.035Z,68.64
2023-04-02T02:42:26.020Z,67.35
2023-04-02T02:43:26.016Z,63.00
2023-04-02T02:44:25.991Z,66.87
2023-04-02T02:45:26.013Z,67.51
2023-04-02T02:46:26.139Z,65.90
2023-04-02T02:47:26.048Z,64.78
2023-04-02T02:48:26.005Z,65.10
2023-04-02T02:49:26.042Z,65.26
2023-04-02T02:50:25.916Z,64.45
2023-04-02T02:51:26.001Z,69.29
2023-04-02T02:52:25.902Z,66.55
2023-04-02T02:53:25.890Z,64.13
2023-04-02T02:54:25.908Z,63.33
2023-04-02T02:55:25.904Z,66.71
2023-04-02T02:56:25.859Z,67.35
2023-04-02T02:57:25.968Z,71.70
2023-04-02T02:58:25.828Z,65.42
2023-04-02T02:59:25.822Z,66.06
2023-04-02T03:00:25.850Z,66.06
2023-04-02T03:01:25.829Z,66.39
2023-04-02T03:02:25.861Z,66.06
2023-04-02T03:03:26.947Z,65.58
2023-04-02T03:04:25.811Z,64.94
2023-04-02T03:05:25.765Z,68.00
2023-04-02T03:06:25.747Z,67.51
2023-04-02T03:07:25.737Z,65.58
2023-04-02T03:08:25.732Z,64.78
2023-04-02T03:09:25.709Z,67.51
2023-04-02T03:10:25.730Z,68.64
2023-04-02T03:11:25.682Z,68.32
2023-04-02T03:12:25.672Z,64.94
2023-04-02T03:13:25.675Z,64.29
2023-04-02T03:14:25.713Z,64.61
2023-04-02T03:15:25.666Z,72.99
2023-04-02T03:16:25.679Z,71.54
2023-04-02T03:17:25.656Z,67.19
2023-04-02T03:18:25.609Z,66.87
2023-04-02T03:19:25.599Z,66.06
2023-04-02T03:20:25.615Z,67.51
2023-04-02T03:21:25.600Z,65.42
2023-04-02T03:22:25.569Z,66.06
2023-04-02T03:23:25.568Z,66.55
2023-04-02T03:24:25.558Z,63.65
2023-04-02T03:25:25.565Z,65.90
2023-04-02T03:26:25.544Z,64.94
2023-04-02T03:27:25.535Z,65.90
2023-04-02T03:28:25.523Z,66.87
2023-04-02T03:29:25.531Z,67.35
2023-04-02T03:30:25.493Z,64.45
2023-04-02T03:31:25.553Z,64.78
2023-04-02T03:32:25.564Z,69.77
2023-04-02T03:33:25.478Z,66.87
2023-04-02T03:34:25.475Z,71.87
2023-04-02T03:35:25.466Z,65.74
2023-04-02T03:36:25.431Z,68.00
2023-04-02T03:37:25.430Z,66.55
2023-04-02T03:38:25.409Z,65.10
2023-04-02T03:39:25.407Z,65.74
2023-04-02T03:40:25.415Z,68.48
2023-04-02T03:41:25.389Z,66.23
2023-04-02T03:42:25.376Z,65.90
2023-04-02T03:43:25.356Z,67.03
2023-04-02T03:44:25.352Z,64.78
2023-04-02T03:45:25.363Z,66.06
2023-04-02T03:46:25.404Z,65.58
2023-04-02T03:47:25.318Z,66.87
2023-04-02T03:48:25.301Z,66.39
2023-04-02T03:49:25.293Z,68.96
2023-04-02T03:50:25.313Z,70.42
2023-04-02T03:51:25.266Z,67.19
2023-04-02T03:52:25.258Z,65.90
2023-04-02T03:53:25.245Z,65.58
2023-04-02T03:54:25.240Z,68.80
2023-04-02T03:55:25.238Z,66.71
2023-04-02T03:56:25.214Z,69.93
2023-04-02T03:57:25.221Z,70.25
2023-04-02T03:58:25.191Z,68.48
2023-04-02T03:59:25.197Z,64.45
2023-04-02T04:00:25.184Z,68.64
2023-04-02T04:01:25.154Z,67.84
2023-04-02T04:02:25.175Z,68.96
2023-04-02T04:03:25.133Z,70.25
2023-04-02T04:04:25.195Z,67.35
2023-04-02T04:05:25.128Z,67.84
2023-04-02T04:06:25.098Z,67.03
2023-04-02T04:07:25.098Z,66.23
2023-04-02T04:08:25.080Z,67.35
2023-04-02T04:09:25.073Z,69.13
2023-04-02T04:10:25.079Z,65.58
2023-04-02T04:11:25.107Z,64.78
2023-04-02T04:12:26.033Z,64.61
2023-04-02T04:13:25.026Z,67.19
2023-04-02T04:14:25.011Z,66.23
2023-04-02T04:15:25.064Z,65.90
2023-04-02T04:16:25.022Z,66.39
2023-04-02T04:17:25.054Z,65.74
2023-04-02T04:18:24.959Z,67.35
2023-04-02T04:19:24.963Z,69.61
2023-04-02T04:20:24.956Z,69.29
2023-04-02T04:21:24.933Z,67.84
2023-04-02T04:22:24.931Z,69.45
2023-04-02T04:23:24.913Z,70.25
2023-04-02T04:24:24.909Z,67.35
2023-04-02T04:25:24.927Z,67.03
2023-04-02T04:26:24.927Z,68.80
2023-04-02T04:27:24.878Z,71.38
2023-04-02T04:28:24.857Z,74.60
2023-04-02T04:29:24.843Z,76.86
2023-04-02T04:30:24.857Z,69.45
2023-04-02T04:31:25.947Z,66.87
2023-04-02T04:32:25.818Z,71.54
2023-04-02T04:33:24.794Z,70.25
2023-04-02T04:34:24.797Z,75.73
2023-04-02T04:35:25.874Z,70.74
2023-04-02T04:36:24.777Z,76.22
2023-04-02T04:37:24.751Z,74.12
2023-04-02T04:38:24.742Z,71.06
2023-04-02T04:39:24.743Z,72.67
2023-04-02T04:40:24.747Z,71.06
2023-04-02T04:41:24.706Z,69.13
2023-04-02T04:42:24.715Z,68.16
2023-04-02T04:43:24.691Z,70.09
2023-04-02T04:44:24.698Z,71.38
2023-04-02T04:45:24.738Z,67.84
2023-04-02T04:46:24.698Z,69.45
2023-04-02T04:47:24.668Z,70.90
2023-04-02T04:48:24.637Z,71.87
2023-04-02T04:49:24.645Z,71.54
2023-04-02T04:50:24.648Z,70.42
2023-04-02T04:51:24.617Z,67.51
2023-04-02T04:52:24.608Z,66.39
2023-04-02T04:53:24.595Z,70.90
2023-04-02T04:54:24.587Z,68.64
2023-04-02T04:55:24.604Z,66.55
2023-04-02T04:56:24.566Z,68.80
2023-04-02T04:57:24.674Z,67.19
2023-04-02T04:58:24.550Z,68.32
2023-04-02T04:59:25.562Z,70.58
2023-04-02T05:00:24.543Z,65.90
2023-04-02T05:01:24.550Z,66.87
2023-04-02T05:02:24.600Z,66.55
2023-04-02T05:03:24.503Z,65.90
2023-04-02T05:04:24.519Z,68.00
2023-04-02T05:05:24.523Z,68.16
2023-04-02T05:06:24.471Z,66.87
2023-04-02T05:07:24.466Z,67.51
2023-04-02T05:08:24.449Z,67.35
2023-04-02T05:09:24.439Z,70.25
2023-04-02T05:10:24.457Z,67.35
2023-04-02T05:11:24.423Z,70.42
2023-04-02T05:12:25.405Z,69.93
2023-04-02T05:13:24.397Z,70.42
2023-04-02T05:14:24.395Z,69.13
2023-04-02T05:15:24.399Z,67.03
2023-04-02T05:16:24.432Z,66.23
2023-04-02T05:17:24.415Z,66.39
2023-04-02T05:18:24.364Z,69.13
2023-04-02T05:19:24.336Z,67.84
2023-04-02T05:20:24.327Z,68.32
2023-04-02T05:21:24.357Z,70.90
2023-04-02T05:22:24.315Z,69.93
2023-04-02T05:23:24.325Z,68.48
2023-04-02T05:24:24.290Z,68.80
2023-04-02T05:25:24.281Z,68.96
2023-04-02T05:26:24.299Z,70.42
2023-04-02T05:27:24.256Z,69.61
2023-04-02T05:28:24.248Z,73.15
2023-04-02T05:29:24.239Z,71.22
2023-04-02T05:30:24.239Z,71.87
2023-04-02T05:31:24.263Z,68.96
2023-04-02T05:32:24.213Z,67.19
2023-04-02T05:33:24.189Z,70.09
2023-04-02T05:34:24.233Z,70.42
2023-04-02T05:35:24.176Z,66.71
2023-04-02T05:36:24.200Z,72.83
2023-04-02T05:37:24.153Z,68.96
2023-04-02T05:38:24.148Z,67.35
2023-04-02T05:39:24.139Z,67.68
2023-04-02T05:40:24.132Z,69.45
2023-04-02T05:41:24.135Z,73.15
2023-04-02T05:42:24.107Z,72.03
2023-04-02T05:43:24.092Z,69.45
2023-04-02T05:44:24.088Z,70.25
2023-04-02T05:45:24.077Z,68.64
2023-04-02T05:46:24.115Z,68.48
2023-04-02T05:47:24.086Z,70.74
2023-04-02T05:48:24.096Z,70.74
2023-04-02T05:49:24.033Z,69.29
2023-04-02T05:50:24.021Z,69.13
2023-04-02T05:51:24.047Z,68.32
2023-04-02T05:52:24.020Z,67.51
2023-04-02T05:53:23.985Z,68.16
2023-04-02T05:54:23.988Z,69.93
2023-04-02T05:55:23.985Z,69.77
2023-04-02T05:56:23.958Z,68.96
2023-04-02T05:57:39.412Z,69.13
2023-04-02T05:59:24.952Z,68.80
2023-04-02T06:00:23.930Z,69.29
2023-04-02T06:01:23.917Z,68.96
2023-04-02T06:02:23.961Z,71.87
2023-04-02T06:03:23.937Z,68.96
2023-04-02T06:04:23.894Z,68.96
2023-04-02T06:05:23.872Z,68.64
2023-04-02T06:06:23.877Z,69.45
2023-04-02T06:07:23.892Z,68.80
2023-04-02T06:08:23.854Z,67.35
2023-04-02T06:09:23.833Z,68.96
2023-04-02T06:12:42.852Z,71.22
2023-04-02T06:13:42.803Z,72.03
2023-04-02T06:14:42.793Z,69.77
2023-04-02T06:15:42.773Z,71.06
2023-04-02T06:16:42.938Z,71.54
2023-04-02T06:17:42.799Z,69.45
2023-04-02T06:18:42.742Z,69.93
2023-04-02T06:19:42.742Z,69.93
2023-04-02T06:20:42.724Z,68.80
2023-04-02T06:21:42.731Z,67.35
2023-04-02T06:22:42.699Z,68.64
2023-04-02T06:23:42.693Z,70.09
2023-04-02T06:24:42.685Z,67.19
2023-04-02T06:25:42.678Z,69.93
2023-04-02T06:26:42.684Z,69.13
2023-04-02T06:27:42.659Z,70.09
2023-04-02T06:28:42.647Z,69.77
2023-04-02T06:29:42.644Z,68.96
2023-04-02T06:30:42.647Z,70.42
2023-04-02T06:31:42.672Z,69.61
2023-04-02T06:32:42.642Z,68.64
2023-04-02T06:33:43.730Z,70.42
2023-04-02T06:34:43.718Z,69.93
2023-04-02T06:35:43.726Z,72.19
2023-04-02T06:36:43.721Z,70.42
2023-04-02T06:37:43.703Z,69.45
2023-04-02T06:38:43.668Z,71.70
2023-04-02T06:39:43.668Z,72.99
2023-04-02T06:40:43.656Z,74.12
2023-04-02T06:41:43.649Z,73.80
2023-04-02T06:42:43.689Z,68.96
2023-04-02T06:43:43.618Z,73.48
2023-04-02T06:44:43.613Z,70.58
2023-04-02T06:45:43.635Z,69.45
2023-04-02T06:46:43.625Z,70.42
2023-04-02T06:47:43.609Z,72.99
2023-04-02T06:48:43.577Z,70.42
2023-04-02T06:49:43.568Z,71.06
2023-04-02T06:50:43.565Z,71.87
2023-04-02T06:51:43.581Z,70.74
2023-04-02T06:52:43.542Z,68.48
2023-04-02T06:53:43.533Z,69.61
2023-04-02T06:54:43.572Z,71.87
2023-04-02T06:55:43.504Z,70.09
2023-04-02T06:56:44.543Z,71.70
2023-04-02T06:57:43.510Z,71.22
2023-04-02T06:58:43.493Z,69.13
2023-04-02T06:59:43.468Z,69.93
2023-04-02T07:00:43.469Z,70.58
2023-04-02T07:01:43.520Z,70.42
2023-04-02T07:02:43.452Z,71.54
2023-04-02T07:03:43.452Z,70.90
2023-04-02T07:04:43.459Z,69.61
2023-04-02T07:05:43.409Z,69.93
2023-04-02T07:06:43.428Z,69.93
2023-04-02T07:07:43.399Z,70.74
2023-04-02T07:08:43.378Z,70.90
2023-04-02T07:09:43.381Z,69.93
2023-04-02T07:10:43.357Z,69.93
2023-04-02T07:11:43.372Z,69.61
2023-04-02T07:12:43.347Z,68.48
2023-04-02T07:13:43.336Z,70.42
2023-04-02T07:14:43.318Z,69.13
2023-04-02T07:15:43.370Z,70.58
2023-04-02T07:16:43.335Z,70.90
2023-04-02T07:17:43.348Z,70.90
2023-04-02T07:18:43.289Z,70.42
2023-04-02T07:19:43.277Z,70.42
2023-04-02T07:20:43.300Z,72.03
2023-04-02T07:21:43.298Z,74.44
2023-04-02T07:22:43.255Z,71.22
2023-04-02T07:23:43.234Z,71.87
2023-04-02T07:24:43.232Z,70.74
2023-04-02T07:25:43.222Z,72.51
2023-04-02T07:26:43.226Z,70.90
2023-04-02T07:27:43.196Z,72.67
2023-04-02T07:28:43.189Z,70.58
2023-04-02T07:29:43.193Z,71.06
2023-04-02T07:30:43.168Z,70.58
2023-04-02T07:31:43.219Z,72.19
2023-04-02T07:32:43.150Z,69.45
2023-04-02T07:33:43.124Z,70.58
2023-04-02T07:34:43.121Z,70.74
2023-04-02T07:35:43.106Z,68.96
2023-04-02T07:36:43.132Z,71.70
2023-04-02T07:37:43.084Z,71.87
2023-04-02T07:38:43.075Z,70.42
2023-04-02T07:39:43.068Z,71.38
2023-04-02T07:40:43.068Z,71.70
2023-04-02T07:41:43.069Z,71.06
2023-04-02T07:42:43.035Z,69.13
2023-04-02T07:43:44.019Z,69.93
2023-04-02T07:44:43.019Z,72.19
2023-04-02T07:45:43.011Z,71.70
2023-04-02T07:46:43.020Z,73.64
2023-04-02T07:47:43.045Z,72.03
2023-04-02T07:48:42.994Z,70.42
2023-04-02T07:49:42.979Z,71.70
2023-04-02T07:50:42.942Z,72.19
2023-04-02T07:51:42.964Z,71.70
2023-04-02T07:52:42.929Z,71.22
2023-04-02T07:53:42.935Z,70.42
2023-04-02T07:54:42.907Z,72.83
2023-04-02T07:55:42.902Z,69.45
2023-04-02T07:56:42.904Z,71.87
2023-04-02T07:57:45.662Z,71.70
2023-04-02T07:58:42.869Z,71.87
2023-04-02T07:59:42.853Z,71.54
2023-04-02T08:00:43.840Z,70.25
2023-04-02T08:01:43.058Z,70.25
2023-04-02T08:02:42.848Z,70.90
2023-04-02T08:03:42.957Z,70.90
2023-04-02T08:04:42.794Z,72.19
2023-04-02T08:05:42.776Z,70.42
2023-04-02T08:06:43.788Z,72.35
2023-04-02T08:07:42.776Z,70.58
2023-04-02T08:08:42.753Z,71.06
2023-04-02T08:09:42.763Z,71.22
2023-04-02T08:10:42.727Z,72.03
2023-04-02T08:11:42.712Z,71.22
2023-04-02T08:12:42.702Z,71.70
2023-04-02T08:13:42.700Z,71.70
2023-04-02T08:14:42.713Z,71.22
2023-04-02T08:15:42.715Z,70.42
2023-04-02T08:16:42.704Z,70.58
2023-04-02T08:17:42.675Z,69.61
2023-04-02T08:18:42.646Z,71.70
2023-04-02T08:19:54.166Z,69.93
2023-04-02T08:20:44.635Z,69.93
2023-04-02T08:21:42.618Z,71.38
2023-04-02T08:22:42.606Z,71.54
2023-04-02T08:23:42.587Z,70.90
2023-04-02T08:24:42.619Z,71.22
2023-04-02T08:25:42.587Z,70.90
2023-04-02T08:26:43.965Z,71.06
2023-04-02T08:27:42.571Z,70.42
2023-04-02T08:28:42.534Z,75.09
2023-04-02T08:29:42.521Z,71.06
2023-04-02T08:30:42.530Z,71.38
2023-04-02T08:31:42.524Z,71.54
2023-04-02T08:32:42.574Z,72.83
2023-04-02T08:33:42.480Z,73.80
2023-04-02T08:34:42.472Z,73.96
2023-04-02T08:35:42.491Z,72.99
2023-04-02T08:36:42.487Z,70.74
2023-04-02T08:37:42.444Z,70.42
2023-04-02T08:38:42.431Z,72.51
2023-04-02T08:39:42.414Z,71.22
2023-04-02T08:40:42.404Z,71.22
2023-04-02T08:41:42.435Z,70.74
2023-04-02T08:42:42.404Z,71.06
2023-04-02T08:43:42.371Z,71.54
2023-04-02T08:44:42.364Z,72.19
2023-04-02T08:45:42.552Z,72.51
2023-04-02T08:46:42.361Z,73.64
2023-04-02T08:47:42.377Z,72.03
2023-04-02T08:48:42.777Z,72.19
2023-04-02T08:49:43.310Z,72.51
2023-04-02T08:50:43.294Z,72.67
2023-04-02T08:51:42.283Z,72.51
2023-04-02T08:52:42.283Z,74.12
2023-04-02T08:53:42.258Z,72.03
2023-04-02T08:54:42.233Z,72.03
2023-04-02T08:55:42.230Z,73.15
2023-04-02T08:56:42.228Z,75.73
2023-04-02T08:57:42.231Z,71.22
2023-04-02T08:58:42.191Z,70.74
2023-04-02T08:59:42.193Z,73.64
2023-04-02T09:00:42.165Z,72.19
2023-04-02T09:01:42.251Z,71.22
2023-04-02T09:02:42.232Z,71.54
2023-04-02T09:03:42.143Z,70.74
2023-04-02T09:04:42.166Z,70.42
2023-04-02T09:05:42.112Z,71.06
2023-04-02T09:06:42.102Z,72.51
2023-04-02T09:07:42.125Z,72.67
2023-04-02T09:08:42.074Z,71.06
2023-04-02T09:09:42.068Z,70.09
2023-04-02T09:10:42.086Z,72.51
2023-04-02T09:11:42.039Z,72.03
2023-04-02T09:12:42.362Z,71.70
2023-04-02T09:13:43.035Z,72.35
2023-04-02T09:14:42.013Z,73.32
2023-04-02T09:15:42.045Z,71.87
2023-04-02T09:16:41.973Z,72.83
2023-04-02T09:17:53.229Z,71.54
2023-04-02T09:18:43.991Z,70.09
2023-04-02T09:19:41.962Z,72.03
2023-04-02T09:20:41.938Z,73.32
2023-04-02T09:21:41.948Z,72.19
2023-04-02T09:22:41.940Z,70.90
2023-04-02T09:23:41.908Z,71.87
2023-04-02T09:24:41.898Z,73.48
2023-04-02T09:25:42.205Z,71.06
2023-04-02T09:26:41.866Z,71.06
2023-04-02T09:27:41.881Z,70.42
2023-04-02T09:28:41.849Z,71.70
2023-04-02T09:29:41.868Z,71.54
2023-04-02T09:30:41.838Z,72.67
2023-04-02T09:31:41.902Z,71.06
2023-04-02T09:32:41.843Z,71.06
2023-04-02T09:33:41.790Z,71.22
2023-04-02T09:34:41.783Z,70.42
2023-04-02T09:35:41.918Z,70.58
2023-04-02T09:36:42.754Z,69.93
2023-04-02T09:37:41.771Z,70.25
2023-04-02T09:38:41.748Z,70.09
2023-04-02T09:39:41.727Z,69.93
2023-04-02T09:40:41.714Z,70.42
2023-04-02T09:41:41.706Z,70.25
2023-04-02T09:42:41.774Z,71.87
2023-04-02T09:43:41.674Z,71.22
2023-04-02T09:44:41.664Z,70.74
2023-04-02T09:45:41.651Z,70.74
2023-04-02T09:46:41.689Z,70.90
2023-04-02T09:47:42.305Z,70.09
2023-04-02T09:48:42.615Z,71.22
2023-04-02T09:49:41.609Z,69.93
2023-04-02T09:50:41.610Z,70.25
2023-04-02T09:51:41.588Z,71.22
2023-04-02T09:52:41.601Z,72.67
2023-04-02T09:53:42.599Z,72.67
2023-04-02T09:54:41.572Z,71.06
2023-04-02T09:55:41.561Z,71.06
2023-04-02T09:56:41.547Z,71.54
2023-04-02T09:57:41.541Z,70.58
2023-04-02T09:58:41.502Z,72.35
2023-04-02T09:59:41.492Z,74.77
2023-04-02T10:00:42.143Z,69.61
2023-04-02T10:01:42.606Z,72.03
2023-04-02T10:02:41.585Z,71.22
2023-04-02T10:03:41.443Z,70.25
2023-04-02T10:04:41.578Z,72.19
2023-04-02T10:05:41.770Z,70.25
2023-04-02T10:06:41.412Z,73.96
2023-04-02T10:07:41.470Z,74.28
2023-04-02T10:08:41.386Z,72.51
2023-04-02T10:09:41.377Z,70.58
2023-04-02T10:10:42.377Z,70.58
2023-04-02T10:11:46.555Z,72.03
2023-04-02T10:12:43.391Z,71.06
2023-04-02T10:13:41.354Z,72.35
2023-04-02T10:14:41.333Z,72.03
2023-04-02T10:15:41.320Z,72.99
2023-04-02T10:16:41.328Z,71.87
2023-04-02T10:17:41.339Z,71.70
2023-04-02T10:18:41.281Z,72.99
2023-04-02T10:19:41.275Z,71.06
2023-04-02T10:20:50.565Z,70.58
2023-04-02T10:21:43.257Z,70.58
2023-04-02T10:22:41.262Z,70.74
2023-04-02T10:23:41.217Z,68.96
2023-04-02T10:24:41.238Z,69.93
2023-04-02T10:25:41.203Z,70.42
2023-04-02T10:26:41.198Z,72.19
2023-04-02T10:27:41.201Z,71.54
2023-04-02T10:28:41.171Z,70.90
2023-04-02T10:29:41.151Z,71.06
2023-04-02T10:30:41.160Z,71.06
2023-04-02T10:31:41.146Z,70.74
2023-04-02T10:32:41.153Z,70.90
2023-04-02T10:33:41.125Z,72.51
2023-04-02T10:34:42.825Z,70.42
2023-04-02T10:35:41.120Z,71.54
2023-04-02T10:36:41.076Z,69.29
2023-04-02T10:37:41.087Z,69.13
2023-04-02T10:38:41.054Z,69.45
2023-04-02T10:39:41.041Z,70.58
2023-04-02T10:40:41.043Z,69.93
2023-04-02T10:41:41.072Z,70.90
2023-04-02T10:42:41.057Z,70.74
2023-04-02T10:43:40.992Z,69.29
2023-04-02T10:44:41.990Z,70.09
2023-04-02T10:45:41.103Z,70.09
2023-04-02T10:46:41.036Z,72.03
2023-04-02T10:47:41.019Z,69.93
2023-04-02T10:48:40.948Z,68.80
2023-04-02T10:49:41.035Z,68.00
2023-04-02T10:50:40.923Z,69.29
2023-04-02T10:51:40.920Z,70.74
2023-04-02T10:52:40.918Z,70.09
2023-04-02T10:53:40.890Z,69.13
2023-04-02T10:54:40.933Z,67.84
2023-04-02T10:55:40.904Z,68.00
2023-04-02T10:56:50.750Z,67.19
2023-04-02T10:57:42.886Z,69.45
2023-04-02T10:58:40.841Z,71.70
2023-04-02T10:59:40.833Z,68.96
2023-04-02T11:00:40.833Z,70.09
2023-04-02T11:01:40.862Z,70.74
2023-04-02T11:02:40.960Z,69.29
2023-04-02T11:03:40.979Z,68.64
2023-04-02T11:04:40.787Z,68.32
2023-04-02T11:05:40.776Z,68.80
2023-04-02T11:06:40.752Z,69.77
2023-04-02T11:07:40.763Z,68.48
2023-04-02T11:08:40.734Z,71.22
2023-04-02T11:09:40.718Z,69.77
2023-04-02T11:10:40.727Z,69.61
2023-04-02T11:11:40.693Z,71.70
2023-04-02T11:12:42.026Z,70.25
2023-04-02T11:13:41.672Z,69.61
2023-04-02T11:14:40.718Z,69.77
2023-04-02T11:15:40.662Z,70.09
2023-04-02T11:16:43.943Z,70.25
2023-04-02T11:17:41.692Z,70.09
2023-04-02T11:18:40.622Z,69.45
2023-04-02T11:19:40.694Z,68.96
2023-04-02T11:20:40.630Z,68.64
2023-04-02T11:21:51.423Z,69.45
2023-04-02T11:22:42.602Z,70.25
2023-04-02T11:23:40.558Z,69.77
2023-04-02T11:24:40.556Z,70.58
2023-04-02T11:25:40.544Z,70.58
2023-04-02T11:26:40.558Z,70.90
2023-04-02T11:27:40.527Z,71.38
2023-04-02T11:28:40.537Z,70.58
2023-04-02T11:29:40.497Z,74.77
2023-04-02T11:30:40.494Z,74.28
2023-04-02T11:31:40.498Z,71.22
2023-04-02T11:32:40.591Z,71.87
2023-04-02T11:33:43.399Z,71.22
2023-04-02T11:34:41.444Z,72.83
2023-04-02T11:35:40.623Z,71.54
2023-04-02T11:36:40.428Z,70.25
2023-04-02T11:37:40.414Z,70.42
2023-04-02T11:38:40.416Z,69.61
2023-04-02T11:39:40.387Z,69.13
2023-04-02T11:40:40.397Z,69.45
2023-04-02T11:41:40.359Z,69.29
2023-04-02T11:42:40.359Z,71.38
2023-04-02T11:43:40.372Z,67.84
2023-04-02T11:44:40.341Z,68.96
2023-04-02T11:45:51.838Z,69.13
2023-04-02T11:46:42.403Z,69.61
2023-04-02T11:47:40.359Z,71.22
2023-04-02T11:48:40.321Z,71.38
2023-04-02T11:49:40.344Z,71.38
2023-04-02T11:50:40.284Z,70.58
2023-04-02T11:51:40.288Z,70.42
2023-04-02T11:52:40.251Z,69.45
2023-04-02T11:53:40.266Z,70.25
2023-04-02T11:54:40.229Z,70.42
2023-04-02T11:55:40.222Z,70.42
2023-04-02T11:56:40.213Z,70.25
2023-04-02T11:57:40.237Z,70.42
2023-04-02T11:58:40.351Z,69.45
2023-04-02T11:59:40.176Z,69.93
2023-04-02T12:00:40.170Z,71.87
2023-04-02T12:01:40.203Z,69.61
2023-04-02T12:02:40.252Z,68.64
2023-04-02T12:03:40.174Z,70.25
2023-04-02T12:04:40.139Z,69.61
2023-04-02T12:05:40.215Z,69.93
2023-04-02T12:06:41.109Z,71.06
2023-04-02T12:07:40.093Z,70.42
2023-04-02T12:08:50.896Z,68.80
2023-04-02T12:09:42.074Z,68.48
2023-04-02T12:10:40.108Z,68.48
2023-04-02T12:11:40.075Z,70.42
2023-04-02T12:12:40.077Z,69.77
2023-04-02T12:13:40.082Z,70.58
2023-04-02T12:14:40.041Z,73.96
2023-04-02T12:15:40.014Z,71.38
2023-04-02T12:16:40.081Z,70.42
2023-04-02T12:17:40.058Z,69.77
2023-04-02T12:18:39.996Z,67.51
2023-04-02T12:19:39.976Z,68.00
2023-04-02T12:20:39.969Z,66.87
2023-04-02T12:21:39.959Z,68.32
2023-04-02T12:22:39.950Z,67.51
2023-04-02T12:23:39.950Z,69.13
2023-04-02T12:24:39.946Z,69.93
2023-04-02T12:25:40.960Z,65.90
2023-04-02T12:26:39.897Z,67.19
2023-04-02T12:27:39.898Z,67.68
2023-04-02T12:28:39.881Z,67.19
2023-04-02T12:29:39.898Z,65.74
2023-04-02T12:30:39.893Z,66.71
2023-04-02T12:31:39.859Z,68.48
2023-04-02T12:32:39.897Z,67.03
2023-04-02T12:33:39.841Z,68.00
2023-04-02T12:34:39.853Z,66.71
2023-04-02T12:35:39.860Z,64.45
2023-04-02T12:36:39.809Z,65.74
2023-04-02T12:37:39.799Z,65.42
2023-04-02T12:38:39.806Z,66.23
2023-04-02T12:39:39.797Z,67.51
2023-04-02T12:40:39.772Z,66.06
2023-04-02T12:41:39.780Z,65.74
2023-04-02T12:42:39.744Z,65.90
2023-04-02T12:43:39.757Z,66.55
2023-04-02T12:44:39.753Z,66.23
2023-04-02T12:45:39.712Z,65.74
2023-04-02T12:46:39.813Z,66.06
2023-04-02T12:47:39.722Z,68.00
2023-04-02T12:48:39.684Z,70.25
2023-04-02T12:49:39.696Z,68.48
2023-04-02T12:50:39.674Z,67.03
2023-04-02T12:51:39.665Z,67.68
2023-04-02T12:52:39.642Z,68.48
2023-04-02T12:53:39.669Z,70.58
2023-04-02T12:54:39.644Z,70.90
2023-04-02T12:55:39.674Z,67.19